Time;durP1;ratioP1;P1;durP2;ratioP2;P2;SDS_P1;SDS_P2;PMS_P1;PMS_P2;Temp;Humidity;BMP_temperature;BMP_pressure;BME280_temperature;BME280_humidity;BME280_pressure;Samples;Min_cycle;Max_cycle;Signal;HPM_P1;HPM_P2
2022/03/24 00:01:47;;;;;;;82.90;42.47;;;;;;;4.52;38.71;101151.77;123434;1099;104728;-78
2022/03/24 00:04:16;;;;;;;87.90;42.65;;;;;;;4.37;38.42;101143.80;123369;1099;104299;-79
2022/03/24 00:06:47;;;;;;;86.50;42.40;;;;;;;4.25;39.03;101136.92;123723;1099;104303;-77
2022/03/24 00:09:17;;;;;;;81.43;40.87;;;;;;;4.14;39.56;101136.19;123635;1099;104386;-78
2022/03/24 00:11:47;;;;;;;81.80;41.07;;;;;;;4.10;39.17;101128.06;123394;1099;104294;-78
2022/03/24 00:14:18;;;;;;;78.67;40.37;;;;;;;4.01;39.14;101136.08;123619;1099;104272;-78
2022/03/24 00:16:48;;;;;;;81.20;41.43;;;;;;;3.94;39.53;101141.61;123344;1099;104488;-78
2022/03/24 00:19:19;;;;;;;74.90;40.43;;;;;;;3.88;39.41;101134.30;123425;1099;104425;-78
2022/03/24 00:21:49;;;;;;;89.43;41.93;;;;;;;3.84;39.57;101128.77;123406;1099;104242;-78
2022/03/24 00:27:20;;;;;;;77.23;38.37;;;;;;;3.79;39.83;101123.25;123437;1099;104374;-79
2022/03/24 00:29:50;;;;;;;73.63;39.30;;;;;;;3.76;40.04;101121.31;123342;1098;104406;-78
2022/03/24 00:32:20;;;;;;;78.75;41.20;;;;;;;3.72;39.65;101115.79;123378;1099;104784;-78
2022/03/24 00:34:50;;;;;;;78.23;39.53;;;;;;;3.68;39.38;101112.08;123440;1099;104239;-79
2022/03/24 00:37:20;;;;;;;80.85;39.70;;;;;;;3.67;39.62;101114.56;123599;1099;104370;-77
2022/03/24 00:39:50;;;;;;;81.77;40.23;;;;;;;3.70;39.47;101112.19;123440;1099;104504;-79
2022/03/24 00:42:21;;;;;;;80.73;40.50;;;;;;;3.73;39.43;101107.22;123345;1098;104299;-78
2022/03/24 00:44:51;;;;;;;82.37;39.57;;;;;;;3.77;39.67;101106.63;123592;1099;104251;-79
2022/03/24 00:47:21;;;;;;;76.73;40.07;;;;;;;3.82;39.95;101094.91;123707;1099;104373;-77
2022/03/24 00:49:51;;;;;;;81.60;40.93;;;;;;;3.89;39.69;101086.75;123484;1099;104453;-77
2022/03/24 00:52:21;;;;;;;78.87;40.03;;;;;;;3.95;39.41;101087.19;123753;1099;104552;-77
2022/03/24 00:54:51;;;;;;;74.97;39.13;;;;;;;4.00;39.58;101079.73;123718;1099;104275;-78
2022/03/24 00:57:21;;;;;;;78.67;40.50;;;;;;;4.03;40.19;101079.95;123329;1098;104314;-78
2022/03/24 00:59:52;;;;;;;78.23;41.43;;;;;;;4.06;39.75;101071.48;123409;1099;104642;-79
2022/03/24 01:02:25;;;;;;;71.87;39.67;;;;;;;4.08;40.24;101070.81;123719;1099;104274;-77
2022/03/24 01:04:55;;;;;;;82.73;41.63;;;;;;;4.06;39.78;101074.08;123744;1099;104354;-78
2022/03/24 01:07:25;;;;;;;86.63;41.23;;;;;;;4.07;40.15;101065.52;123423;1099;104352;-78
2022/03/24 01:09:55;;;;;;;84.70;42.00;;;;;;;4.08;40.02;101063.02;123630;1099;104453;-78
2022/03/24 01:12:25;;;;;;;81.27;42.00;;;;;;;4.08;39.97;101055.23;123454;1099;104239;-78
2022/03/24 01:14:54;;;;;;;94.23;42.73;;;;;;;4.11;40.45;101054.52;123452;1099;104307;-78
2022/03/24 01:17:26;;;;;;;101.70;44.67;;;;;;;4.09;40.29;101048.33;123511;1099;104415;-78
2022/03/24 01:19:56;;;;;;;97.13;44.57;;;;;;;4.08;40.42;101041.31;123487;1099;104718;-79
2022/03/24 01:22:25;;;;;;;101.57;46.53;;;;;;;4.07;40.57;101044.73;123464;1099;104321;-78
2022/03/24 01:24:59;;;;;;;99.90;45.43;;;;;;;4.03;40.63;101042.70;123572;1099;104188;-78
2022/03/24 01:27:28;;;;;;;94.33;44.83;;;;;;;3.98;40.54;101044.97;123526;1099;104242;-79
2022/03/24 01:29:59;;;;;;;89.13;43.87;;;;;;;3.97;40.48;101045.75;123673;1099;104364;-78
2022/03/24 01:32:29;;;;;;;89.03;42.53;;;;;;;3.93;40.98;101044.64;123270;1099;104353;-79
2022/03/24 01:34:58;;;;;;;82.37;40.17;;;;;;;3.87;40.84;101051.11;123581;1098;104363;-79
2022/03/24 01:37:28;;;;;;;77.87;42.13;;;;;;;3.80;40.61;101043.66;123551;1099;104230;-78
2022/03/24 01:39:59;;;;;;;94.43;49.80;;;;;;;3.68;41.31;101034.21;123582;1098;104341;-78
2022/03/24 01:42:30;;;;;;;92.87;51.67;;;;;;;3.58;41.00;101032.66;123188;1102;104359;-79
2022/03/24 01:45:00;;;;;;;96.77;54.17;;;;;;;3.52;41.03;101029.62;123138;1102;104370;-78
2022/03/24 01:47:30;;;;;;;104.17;59.13;;;;;;;3.40;41.56;101034.80;123256;1102;105431;-79
2022/03/24 01:49:59;;;;;;;101.53;57.80;;;;;;;3.26;41.00;101032.91;123536;1102;104440;-78
2022/03/24 01:52:29;;;;;;;93.63;52.57;;;;;;;3.13;41.24;101025.92;123676;1099;104454;-77
2022/03/24 01:55:00;;;;;;;98.67;52.83;;;;;;;3.02;41.28;101017.34;123375;1102;104565;-78
2022/03/24 01:57:31;;;;;;;99.70;50.70;;;;;;;2.95;42.20;101020.26;123077;1100;104687;-78
2022/03/24 02:00:02;;;;;;;91.53;49.43;;;;;;;2.86;42.20;101017.88;123543;1102;104422;-78
2022/03/24 02:02:32;;;;;;;85.80;46.40;;;;;;;2.81;41.86;101019.22;123404;1102;104533;-79
2022/03/24 02:05:02;;;;;;;76.50;41.75;;;;;;;2.78;41.64;101013.81;123575;1101;104437;-79
2022/03/24 02:07:32;;;;;;;73.60;40.27;;;;;;;2.70;41.87;101010.64;123545;1102;104249;-78
2022/03/24 02:10:02;;;;;;;74.57;38.63;;;;;;;2.67;42.43;101014.70;123536;1100;104348;-78
2022/03/24 02:12:33;;;;;;;79.60;39.50;;;;;;;2.64;41.96;101015.36;123367;1102;104428;-79
2022/03/24 02:15:04;;;;;;;76.57;37.47;;;;;;;2.66;41.77;101010.30;123380;1099;104453;-79
2022/03/24 02:17:34;;;;;;;74.13;38.73;;;;;;;2.68;42.39;101014.81;123415;1099;104422;-79
2022/03/24 02:20:05;;;;;;;72.10;39.07;;;;;;;2.74;42.16;101013.47;123525;1099;117492;-78
2022/03/24 02:22:34;;;;;;;68.15;36.00;;;;;;;2.80;41.85;101007.04;123316;1099;104351;-78
2022/03/24 02:25:03;;;;;;;72.37;35.53;;;;;;;2.87;41.87;101008.42;124010;1099;104354;-77
2022/03/24 02:27:34;;;;;;;69.20;35.70;;;;;;;2.93;42.45;101000.18;123756;1099;104424;-79
2022/03/24 02:30:05;;;;;;;68.10;34.40;;;;;;;2.97;42.57;101002.22;123818;1099;104463;-77
2022/03/24 02:32:35;;;;;;;66.63;32.47;;;;;;;2.95;42.91;100993.44;123665;1099;104290;-79
2022/03/24 02:35:05;;;;;;;61.73;31.63;;;;;;;2.98;42.42;100993.67;123914;1099;104325;-77
2022/03/24 02:37:34;;;;;;;62.37;31.17;;;;;;;2.98;42.10;100997.16;123611;1099;104255;-77
2022/03/24 02:40:04;;;;;;;57.60;29.90;;;;;;;2.98;42.88;100991.97;123478;1099;104299;-78
2022/03/24 02:42:33;;;;;;;57.27;31.13;;;;;;;2.95;43.02;100983.08;123784;1099;104369;-78
2022/03/24 02:45:04;;;;;;;62.47;32.07;;;;;;;2.91;43.10;100983.63;123475;1099;104348;-78
2022/03/24 02:47:33;;;;;;;63.17;31.40;;;;;;;2.85;42.98;100984.98;123348;1099;104354;-78
2022/03/24 02:50:02;;;;;;;65.83;33.57;;;;;;;2.78;43.32;100981.82;123447;1099;104354;-77
2022/03/24 02:52:32;;;;;;;59.85;31.55;;;;;;;2.71;44.33;100990.80;123468;1099;104306;-78
2022/03/24 02:55:02;;;;;;;65.90;32.97;;;;;;;2.64;43.47;100994.63;123461;1099;104300;-78
2022/03/24 02:57:31;;;;;;;65.70;33.47;;;;;;;2.60;43.54;100995.20;123507;1098;104495;-78
2022/03/24 03:00:01;;;;;;;70.13;34.50;;;;;;;2.56;43.82;100992.27;123459;1099;104370;-79
2022/03/24 03:02:29;;;;;;;66.13;33.83;;;;;;;2.51;43.70;100989.33;123465;1099;104274;-79
2022/03/24 03:05:01;;;;;;;67.90;37.47;;;;;;;2.47;44.28;100990.77;123458;1099;104373;-78
2022/03/24 03:07:30;;;;;;;73.07;38.57;;;;;;;2.35;44.56;100984.65;123535;1099;104340;-78
2022/03/24 03:09:59;;;;;;;70.30;38.10;;;;;;;2.25;43.85;100980.46;123544;1099;104355;-79
2022/03/24 03:12:28;;;;;;;70.80;36.87;;;;;;;2.25;43.83;100979.57;123379;1099;104469;-78
2022/03/24 03:14:58;;;;;;;70.50;35.07;;;;;;;2.31;44.09;100980.05;123353;1099;104332;-78
2022/03/24 03:17:28;;;;;;;64.05;35.05;;;;;;;2.37;43.46;100972.74;123424;1099;104226;-79
2022/03/24 03:19:59;;;;;;;64.30;34.67;;;;;;;2.39;44.08;100968.56;123854;1098;104433;-79
2022/03/24 03:22:29;;;;;;;63.33;33.43;;;;;;;2.37;44.25;100970.15;123684;1099;104363;-78
2022/03/24 03:25:00;;;;;;;64.00;33.00;;;;;;;2.37;43.85;100967.56;123399;1099;104242;-78
2022/03/24 03:27:31;;;;;;;60.93;31.73;;;;;;;2.34;43.93;100967.33;123466;1099;104307;-78
2022/03/24 03:30:02;;;;;;;59.17;31.23;;;;;;;2.26;43.73;100956.38;123555;1099;104354;-79
2022/03/24 03:32:33;;;;;;;61.73;31.40;;;;;;;2.21;44.54;100959.39;123496;1099;104254;-79
2022/03/24 03:35:03;;;;;;;61.53;32.13;;;;;;;2.10;43.93;100969.85;123939;1099;104500;-77
2022/03/24 03:37:32;;;;;;;65.33;33.10;;;;;;;2.00;44.80;100963.84;123342;1099;104479;-79
2022/03/24 03:40:01;;;;;;;63.43;33.87;;;;;;;1.90;45.37;100964.80;123488;1099;104287;-78
2022/03/24 03:42:31;;;;;;;64.27;32.27;;;;;;;1.77;45.42;100958.66;123194;1099;104412;-78
2022/03/24 03:45:01;;;;;;;67.00;34.10;;;;;;;1.73;44.96;100956.64;123761;1099;104348;-78
2022/03/24 03:47:30;;;;;;;63.23;34.67;;;;;;;1.70;44.73;100951.22;123770;1099;104408;-77
2022/03/24 03:50:01;;;;;;;64.90;32.20;;;;;;;1.69;44.91;100951.99;123441;1098;104389;-79
2022/03/24 03:52:32;;;;;;;69.37;31.87;;;;;;;1.65;45.14;100951.63;123399;1099;104321;-79
2022/03/24 03:55:02;;;;;;;63.20;32.67;;;;;;;1.59;45.39;100949.45;123793;1098;104268;-79
2022/03/24 03:57:31;;;;;;;69.27;33.70;;;;;;;1.59;45.44;100945.20;123825;1099;104380;-79
2022/03/24 04:00:52;;;;;;;65.50;33.25;;;;;;;1.68;44.75;100949.28;123771;1098;104360;-79
2022/03/24 04:02:52;;;;;;;64.75;32.90;;;;;;;1.75;45.06;100942.13;123737;1099;104380;-77
2022/03/24 04:05:25;;;;;;;64.83;32.07;;;;;;;1.79;45.41;100940.66;123588;1099;104242;-79
2022/03/24 04:07:55;;;;;;;65.80;33.13;;;;;;;1.76;45.12;100943.94;123799;1098;104242;-79
2022/03/24 04:10:27;;;;;;;69.30;32.83;;;;;;;1.70;45.26;100946.05;123894;1099;104325;-77
2022/03/24 04:12:57;;;;;;;62.83;33.50;;;;;;;1.65;45.70;100941.28;123572;1099;104322;-78
2022/03/24 04:15:26;;;;;;;63.57;32.40;;;;;;;1.60;45.61;100943.51;124028;1099;104294;-77
2022/03/24 04:17:55;;;;;;;72.00;35.57;;;;;;;1.60;45.79;100948.68;124095;1099;104261;-78
2022/03/24 04:20:26;;;;;;;63.60;32.87;;;;;;;1.56;45.96;100944.08;123460;1098;105602;-79
2022/03/24 04:23:00;;;;;;;64.83;32.17;;;;;;;1.53;46.56;100941.24;123314;1099;104256;-78
2022/03/24 04:25:28;;;;;;;;;;;;;;;1.47;47.88;100941.65;123679;1099;104255;-78
2022/03/24 04:27:57;;;;;;;63.73;30.80;;;;;;;1.43;46.24;100937.93;123802;1099;104357;-78
2022/03/24 04:30:27;;;;;;;61.43;31.53;;;;;;;1.43;46.85;100937.00;123398;1099;104274;-79
2022/03/24 04:32:58;;;;;;;64.05;31.50;;;;;;;1.44;46.57;100942.30;123512;1099;104267;-79
2022/03/24 04:35:28;;;;;;;63.23;33.10;;;;;;;1.46;46.29;100937.25;123764;1098;104216;-79
2022/03/24 04:37:57;;;;;;;57.95;28.85;;;;;;;1.49;47.05;100936.59;123450;1099;104818;-79
2022/03/24 04:40:26;;;;;;;64.00;32.40;;;;;;;1.48;46.86;100937.37;123786;1099;104667;-78
2022/03/24 04:42:56;;;;;;;64.67;30.77;;;;;;;1.47;47.18;100938.17;123506;1099;104297;-79
2022/03/24 04:45:28;;;;;;;57.57;29.10;;;;;;;1.46;46.73;100931.19;123624;1099;104371;-79
2022/03/24 04:47:59;;;;;;;63.13;29.90;;;;;;;1.46;47.54;100932.08;123747;1098;104376;-78
2022/03/24 04:50:29;;;;;;;58.53;30.07;;;;;;;1.47;47.56;100938.17;123857;1099;104300;-78
2022/03/24 04:52:59;;;;;;;60.40;29.37;;;;;;;1.48;48.26;100932.20;123718;1099;108789;-79
2022/03/24 04:55:28;;;;;;;51.50;25.90;;;;;;;1.50;48.12;100925.48;123906;1099;104175;-78
2022/03/24 04:57:58;;;;;;;52.60;26.57;;;;;;;1.56;48.77;100933.72;123456;1099;104394;-79
2022/03/24 05:00:28;;;;;;;51.37;27.43;;;;;;;1.62;48.19;100923.83;123630;1099;104223;-79
2022/03/24 05:02:59;;;;;;;48.93;26.17;;;;;;;1.68;47.83;100920.83;123891;1099;104874;-79
2022/03/24 05:05:30;;;;;;;52.80;27.23;;;;;;;1.74;47.84;100922.20;123790;1099;104453;-78
2022/03/24 05:08:00;;;;;;;57.93;27.83;;;;;;;1.82;47.81;100924.48;123806;1099;104297;-76
2022/03/24 05:10:30;;;;;;;54.53;26.47;;;;;;;1.88;48.12;100917.20;123696;1099;104355;-76
2022/03/24 05:13:00;;;;;;;53.07;26.67;;;;;;;1.96;47.38;100919.61;123700;1098;104370;-76
2022/03/24 05:15:30;;;;;;;56.87;28.37;;;;;;;2.04;48.15;100915.02;123903;1099;105245;-76
2022/03/24 05:18:00;;;;;;;52.53;25.57;;;;;;;2.16;48.53;100915.92;123817;1099;104299;-76
2022/03/24 05:20:29;;;;;;;57.67;27.77;;;;;;;2.25;48.09;100909.66;123806;1099;104304;-79
2022/03/24 05:22:58;;;;;;;61.75;27.75;;;;;;;2.32;48.00;100911.90;123713;1099;104354;-78
2022/03/24 05:25:28;;;;;;;57.53;26.20;;;;;;;2.41;48.48;100902.23;123372;1099;104317;-78
2022/03/24 05:27:58;;;;;;;61.20;27.20;;;;;;;2.51;48.54;100907.32;123734;1099;104635;-77
2022/03/24 05:30:27;;;;;;;52.07;25.97;;;;;;;2.62;48.36;100905.53;123590;1099;104373;-78
2022/03/24 05:32:57;;;;;;;56.90;26.23;;;;;;;2.72;48.43;100906.20;123668;1099;104268;-77
2022/03/24 05:35:27;;;;;;;56.03;26.87;;;;;;;2.83;47.64;100900.11;123937;1099;104379;-77
2022/03/24 05:37:56;;;;;;;54.13;26.00;;;;;;;2.95;47.58;100906.19;123566;1099;104238;-77
2022/03/24 05:40:26;;;;;;;50.27;25.07;;;;;;;3.08;48.14;100900.19;123353;1099;104325;-79
2022/03/24 05:42:55;;;;;;;54.53;25.30;;;;;;;3.22;47.52;100901.19;123361;1099;104300;-78
2022/03/24 05:45:26;;;;;;;52.30;25.83;;;;;;;3.37;48.09;100896.20;123353;1099;104357;-78
2022/03/24 05:47:56;;;;;;;53.07;24.83;;;;;;;3.53;48.02;100898.17;123718;1099;104270;-77
2022/03/24 05:50:37;;;;;;;58.13;25.40;;;;;;;3.68;47.30;100893.17;123674;1099;104383;-77
2022/03/24 05:53:19;;;;;;;52.73;23.80;;;;;;;3.83;47.82;100891.59;123741;1098;104396;-77
2022/03/24 05:55:48;;;;;;;58.05;26.05;;;;;;;4.01;47.57;100888.48;123565;1099;104403;-79
2022/03/24 05:58:17;;;;;;;53.03;24.70;;;;;;;4.17;48.00;100891.31;124012;1099;104456;-78
2022/03/24 06:00:47;;;;;;;48.20;23.80;;;;;;;4.32;47.42;100881.06;123710;1099;104370;-78
2022/03/24 06:03:16;;;;;;;56.90;24.47;;;;;;;4.48;47.24;100881.27;123781;1099;104491;-80
2022/03/24 06:05:48;;;;;;;51.87;24.77;;;;;;;4.64;46.79;100879.67;123887;1099;105136;-78
2022/03/24 06:08:18;;;;;;;53.87;25.83;;;;;;;4.82;47.45;100877.39;123512;1099;104424;-77
2022/03/24 06:10:48;;;;;;;49.50;23.97;;;;;;;4.99;47.05;100876.77;123787;1099;104271;-78
2022/03/24 06:13:18;;;;;;;47.40;24.27;;;;;;;5.15;47.39;100869.94;124067;1099;104373;-79
2022/03/24 06:15:50;;;;;;;51.63;25.43;;;;;;;5.33;46.81;100862.38;124170;1099;104297;-79
2022/03/24 06:18:19;;;;;;;48.17;24.40;;;;;;;5.49;46.80;100859.94;124091;1099;104223;-78
2022/03/24 06:20:48;;;;;;;54.97;25.23;;;;;;;5.64;46.65;100865.20;123823;1099;104810;-78
2022/03/24 06:23:19;;;;;;;50.27;25.27;;;;;;;5.82;46.47;100869.72;123850;1099;104651;-78
2022/03/24 06:25:50;;;;;;;47.03;23.40;;;;;;;5.98;46.06;100856.83;124407;1099;105429;-80
2022/03/24 06:28:20;;;;;;;48.43;24.33;;;;;;;6.16;46.47;100859.64;124093;1099;104297;-79
2022/03/24 06:30:50;;;;;;;48.57;23.90;;;;;;;6.33;46.41;100860.64;123607;1099;104647;-79
2022/03/24 06:33:20;;;;;;;47.13;23.93;;;;;;;6.52;46.16;100853.89;123851;1099;104297;-79
2022/03/24 06:35:50;;;;;;;47.30;23.43;;;;;;;6.66;45.90;100855.57;123772;1099;104383;-80
2022/03/24 06:38:28;;;;;;;49.93;23.70;;;;;;;6.85;45.61;100849.68;124080;1099;104258;-79
2022/03/24 06:40:58;;;;;;;44.27;23.00;;;;;;;7.02;45.24;100848.90;123909;1099;104329;-80
2022/03/24 06:43:47;;;;;;;44.87;21.80;;;;;;;7.22;44.76;100853.45;124652;1099;104361;-82
2022/03/24 06:46:20;;;;;;;45.10;22.37;;;;;;;7.45;44.52;100847.75;124990;1098;104370;-80
2022/03/24 06:48:51;;;;;;;43.27;22.30;;;;;;;7.65;44.72;100846.21;124458;1099;104242;-81
2022/03/24 06:51:22;;;;;;;49.60;21.87;;;;;;;7.83;44.49;100838.42;124682;1099;104312;-82
2022/03/24 06:53:55;;;;;;;45.77;22.73;;;;;;;8.05;44.67;100839.53;124709;1098;104152;-80
2022/03/24 06:56:25;;;;;;;46.83;22.10;;;;;;;8.25;44.24;100836.21;124487;1099;104195;-80
2022/03/24 06:58:57;;;;;;;43.83;21.87;;;;;;;8.48;43.73;100833.89;124234;1102;104373;-83
2022/03/24 07:01:31;;;;;;;41.80;19.57;;;;;;;8.70;44.16;100837.56;125427;1098;104284;-80
2022/03/24 07:04:04;;;;;;;44.00;19.90;;;;;;;8.92;43.72;100832.52;125020;1099;104306;-82
2022/03/24 07:06:37;;;;;;;40.08;19.37;;;;;;;9.17;42.72;100831.06;124617;1099;104303;-80
2022/03/24 07:09:08;;;;;;;37.73;18.63;;;;;;;9.34;43.29;100829.23;125168;1099;104248;-79
2022/03/24 07:11:40;;;;;;;39.63;18.40;;;;;;;9.53;43.11;100818.74;124427;1099;104454;-78
2022/03/24 07:14:17;;;;;;;37.77;19.10;;;;;;;9.73;42.26;100812.63;124467;1099;104249;-79
2022/03/24 07:16:51;;;;;;;36.27;18.20;;;;;;;9.94;42.13;100808.32;124388;1099;104306;-78
2022/03/24 07:19:22;;;;;;;38.73;18.40;;;;;;;10.22;42.67;100814.70;124140;1099;104450;-78
2022/03/24 07:21:53;;;;;;;35.57;18.10;;;;;;;10.46;41.91;100808.75;124753;1099;104359;-79
2022/03/24 07:24:23;;;;;;;42.10;18.90;;;;;;;10.66;41.62;100807.83;124364;1099;104335;-81
2022/03/24 07:26:57;;;;;;;37.23;18.47;;;;;;;10.89;41.28;100794.70;124608;1099;104236;-79
2022/03/24 07:29:30;;;;;;;36.77;17.47;;;;;;;11.11;40.82;100805.22;124505;1098;104163;-81
2022/03/24 07:32:04;;;;;;;36.83;17.93;;;;;;;11.31;41.22;100798.09;124290;1099;104296;-82
2022/03/24 07:34:33;;;;;;;35.60;17.90;;;;;;;11.53;41.01;100798.89;124842;1099;104216;-78
2022/03/24 07:37:04;;;;;;;39.07;17.60;;;;;;;11.75;40.51;100797.92;123917;1102;104352;-80
2022/03/24 07:39:39;;;;;;;31.77;16.43;;;;;;;11.93;40.59;100791.55;124746;1098;104351;-80
2022/03/24 07:42:14;;;;;;;33.27;16.10;;;;;;;12.15;39.88;100783.53;124668;1099;104197;-80
2022/03/24 07:44:47;;;;;;;33.60;14.80;;;;;;;12.40;39.38;100786.98;124700;1099;104242;-79
2022/03/24 07:47:17;;;;;;;33.37;15.70;;;;;;;12.60;38.79;100782.37;124890;1099;104200;-79
2022/03/24 07:49:56;;;;;;;30.20;15.30;;;;;;;12.81;38.79;100781.25;124912;1099;104197;-79
2022/03/24 07:52:32;;;;;;;32.30;14.77;;;;;;;12.90;38.38;100761.38;124963;1099;104252;-79
2022/03/24 07:55:05;;;;;;;;;;;;;;;13.18;35.58;100766.56;124790;1099;104133;-80
2022/03/24 07:57:40;;;;;;;31.82;14.85;;;;;;;13.34;38.08;100765.29;125172;1099;104166;-80
2022/03/24 08:00:17;;;;;;;30.90;14.33;;;;;;;13.53;37.37;100759.70;124419;1099;104242;-80
2022/03/24 08:02:52;;;;;;;30.60;13.60;;;;;;;13.71;38.10;100756.66;124588;1099;104265;-78
2022/03/24 08:05:26;;;;;;;32.17;13.87;;;;;;;13.88;37.41;100759.75;124692;1099;104310;-81
2022/03/24 08:08:00;;;;;;;30.47;14.40;;;;;;;14.05;36.86;100744.36;124799;1099;104222;-80
2022/03/24 08:10:42;;;;;;;30.67;14.30;;;;;;;14.22;36.63;100744.78;124300;1099;104291;-79
2022/03/24 08:13:13;;;;;;;30.73;13.47;;;;;;;14.36;36.65;100738.09;124171;1099;104308;-78
2022/03/24 08:15:56;;;;;;;27.87;13.10;;;;;;;14.46;36.21;100730.39;124091;1099;104367;-80
2022/03/24 08:18:31;;;;;;;27.17;12.60;;;;;;;14.61;35.20;100729.90;124544;1099;104255;-81
2022/03/24 08:21:02;;;;;;;30.47;13.67;;;;;;;14.73;35.30;100723.13;124195;1102;104226;-79
2022/03/24 08:23:46;;;;;;;27.20;12.63;;;;;;;14.82;35.04;100722.45;124397;1099;104320;-79
2022/03/24 08:26:19;;;;;;;29.47;13.23;;;;;;;14.99;34.05;100730.75;124547;1099;104156;-79
2022/03/24 08:28:57;;;;;;;27.77;11.77;;;;;;;15.08;34.83;100720.38;124741;1099;104329;-80
2022/03/24 08:31:33;;;;;;;26.67;12.33;;;;;;;15.20;33.96;100710.91;124708;1099;104220;-82
2022/03/24 08:34:03;;;;;;;25.30;12.50;;;;;;;15.40;32.58;100714.83;124782;1099;104239;-79
2022/03/24 08:36:37;;;;;;;25.17;12.47;;;;;;;15.52;32.28;100711.54;124314;1099;104329;-80
2022/03/24 08:39:07;;;;;;;26.15;12.13;;;;;;;15.63;32.41;100711.73;124231;1099;104223;-78
2022/03/24 08:41:37;;;;;;;27.40;13.70;;;;;;;15.71;32.53;100704.83;124133;1099;104367;-78
2022/03/24 08:44:08;;;;;;;23.83;11.93;;;;;;;15.78;32.06;100701.47;124124;1099;104364;-80
2022/03/24 08:47:07;;;;;;;25.43;12.53;;;;;;;15.86;31.14;100706.87;124852;1099;104172;-77
2022/03/24 08:49:36;;;;;;;23.53;11.30;;;;;;;16.00;31.16;100696.52;124839;1099;104272;-80
2022/03/24 08:52:10;;;;;;;24.67;12.07;;;;;;;16.14;30.23;100699.39;123897;1099;104364;-77
2022/03/24 08:54:57;;;;;;;24.20;12.30;;;;;;;16.25;29.37;100699.56;124454;1099;104437;-79
2022/03/24 08:57:37;;;;;;;25.40;11.60;;;;;;;16.38;30.38;100692.69;124212;1102;104331;-79
2022/03/24 09:00:12;;;;;;;26.80;12.60;;;;;;;16.47;30.64;100677.85;124453;1099;104294;-78
2022/03/24 09:02:43;;;;;;;25.87;11.70;;;;;;;16.56;29.47;100668.24;123757;1099;104640;-78
2022/03/24 09:05:22;;;;;;;24.33;11.30;;;;;;;16.68;29.89;100671.06;123854;1102;104226;-80
2022/03/24 09:07:56;;;;;;;23.13;11.63;;;;;;;16.77;29.79;100665.02;124479;1099;104387;-79
2022/03/24 09:10:34;;;;;;;24.60;12.43;;;;;;;16.84;28.71;100659.81;124552;1099;104486;-78
2022/03/24 09:13:05;;;;;;;25.70;12.57;;;;;;;16.90;27.52;100669.61;123777;1099;104213;-79
2022/03/24 09:15:39;;;;;;;26.63;12.77;;;;;;;16.97;28.17;100657.31;124338;1099;104232;-79
2022/03/24 09:18:15;;;;;;;25.33;12.97;;;;;;;17.01;28.54;100659.14;124843;1099;104242;-80
2022/03/24 09:21:05;;;;;;;26.13;12.20;;;;;;;17.08;27.37;100653.05;124935;1099;104501;-81
2022/03/24 09:23:35;;;;;;;26.87;12.93;;;;;;;17.17;27.63;100649.59;125053;1099;104262;-79
2022/03/24 09:26:29;;;;;;;26.00;12.60;;;;;;;17.21;27.18;100652.30;124871;1099;104416;-81
2022/03/24 09:29:09;;;;;;;26.83;12.90;;;;;;;17.27;26.74;100640.00;124885;1099;104352;-81
2022/03/24 09:31:43;;;;;;;24.93;12.97;;;;;;;17.34;26.84;100645.38;125388;1099;104210;-80
2022/03/24 09:34:28;;;;;;;25.87;12.37;;;;;;;17.39;26.88;100635.70;123995;1099;104306;-80
2022/03/24 09:36:59;;;;;;;25.30;12.07;;;;;;;17.46;27.21;100639.30;124040;1099;104351;-79
2022/03/24 09:39:33;;;;;;;25.92;11.50;;;;;;;17.52;26.85;100631.39;123973;1099;104265;-80
2022/03/24 09:42:17;;;;;;;;;;;;;;;;;;;;;
2022/03/24 09:45:11;;;;;;;24.97;12.50;;;;;;;17.69;25.01;100628.02;123970;1099;104643;-80
2022/03/24 09:47:43;;;;;;;24.10;12.10;;;;;;;17.72;25.93;100620.95;124256;1099;104239;-80
2022/03/24 09:50:26;;;;;;;24.03;11.17;;;;;;;17.81;25.70;100621.91;124069;1099;104230;-81
2022/03/24 09:52:59;;;;;;;23.53;12.53;;;;;;;17.83;23.90;100631.66;124003;1099;104280;-80
2022/03/24 09:56:09;;;;;;;26.13;12.27;;;;;;;17.88;24.45;100615.77;124637;1099;104290;-80
2022/03/24 10:04:48;;;;;;;27.65;12.95;;;;;;;18.00;20.47;100607.94;123422;1099;104341;-79
2022/03/24 10:07:55;;;;;;;24.07;12.60;;;;;;;18.05;23.67;100603.54;124251;1102;104255;-81
2022/03/24 10:11:02;;;;;;;26.70;12.33;;;;;;;18.13;22.25;100603.59;125029;1102;104334;-81
2022/03/24 10:13:57;;;;;;;26.13;13.17;;;;;;;18.21;22.74;100596.55;125189;1102;118505;-78
2022/03/24 10:16:47;;;;;;;34.33;14.10;;;;;;;18.26;21.97;100602.80;124426;1102;104411;-78
2022/03/24 10:19:23;;;;;;;29.27;13.90;;;;;;;18.17;21.11;100605.39;124091;1102;104428;-78
2022/03/24 10:22:10;;;;;;;29.00;13.90;;;;;;;18.20;21.77;100607.16;124843;1102;103619;-82
2022/03/24 10:24:46;;;;;;;25.43;12.27;;;;;;;18.24;22.06;100595.69;125415;1102;102362;-81
2022/03/24 10:27:27;;;;;;;28.27;13.33;;;;;;;18.27;21.70;100617.83;123978;1105;103152;-79
2022/03/24 10:30:01;;;;;;;28.95;13.28;;;;;;;18.27;20.88;100617.83;124012;1102;104389;-80
2022/03/24 10:32:33;;;;;;;27.17;13.87;;;;;;;18.29;20.67;100607.22;124147;1102;104194;-78
2022/03/24 10:35:13;;;;;;;26.20;13.77;;;;;;;18.27;21.23;100603.67;124208;1099;112950;-77
2022/03/24 10:37:51;;;;;;;27.90;13.73;;;;;;;18.35;21.37;100593.09;124872;1099;104210;-78
2022/03/24 10:40:21;;;;;;;28.23;14.27;;;;;;;18.37;21.65;100593.98;124899;1099;104430;-77
2022/03/24 10:42:55;;;;;;;32.87;16.50;;;;;;;18.40;21.66;100578.97;124605;1099;104239;-77
2022/03/24 10:45:26;;;;;;;34.03;17.17;;;;;;;18.43;22.17;100586.04;124146;1099;104938;-76
2022/03/24 10:48:01;;;;;;;33.53;17.23;;;;;;;18.47;21.10;100575.44;124193;1099;104350;-77
2022/03/24 10:50:39;;;;;;;29.93;16.83;;;;;;;18.52;22.09;100583.43;124412;1099;104271;-78
2022/03/24 10:53:10;;;;;;;31.33;17.40;;;;;;;18.54;21.70;100576.34;124317;1099;104236;-77
2022/03/24 10:56:00;;;;;;;30.07;16.80;;;;;;;18.54;21.17;100584.31;125654;1099;107782;-76
2022/03/24 10:58:35;;;;;;;36.47;18.90;;;;;;;18.53;21.75;100563.96;124454;1098;104267;-77
2022/03/24 11:01:08;;;;;;;37.45;19.55;;;;;;;18.52;21.59;100572.80;124480;1099;104216;-76
2022/03/24 11:03:38;;;;;;;37.35;18.65;;;;;;;18.52;21.25;100580.77;124557;1099;104238;-77
2022/03/24 11:06:12;;;;;;;34.30;20.23;;;;;;;18.48;21.41;100571.91;124245;1099;104314;-78
2022/03/24 11:08:43;;;;;;;39.90;19.63;;;;;;;18.46;21.03;100575.43;124440;1099;104245;-77
2022/03/24 11:14:07;;;;;;;37.23;21.80;;;;;;;18.28;21.22;100579.78;124651;1099;104181;-79
2022/03/24 11:16:58;;;;;;;40.80;22.30;;;;;;;18.21;20.99;100583.27;125290;1099;104248;-77
2022/03/24 11:19:39;;;;;;;42.53;22.13;;;;;;;18.18;21.20;100559.34;124693;1102;104429;-78
2022/03/24 11:22:12;;;;;;;45.30;23.60;;;;;;;18.20;21.60;100560.27;124124;1102;104392;-79
2022/03/24 11:24:47;;;;;;;37.63;22.37;;;;;;;18.21;21.20;100569.98;124280;1102;104252;-78
2022/03/24 11:27:19;;;;;;;42.60;23.30;;;;;;;18.23;21.40;100564.69;125285;1102;104159;-77
2022/03/24 11:29:50;;;;;;;42.73;23.03;;;;;;;18.20;21.71;100540.77;124024;1102;104693;-77
2022/03/24 11:32:20;;;;;;;41.73;21.93;;;;;;;18.14;21.74;100545.17;124108;1102;104162;-77
2022/03/24 11:34:51;;;;;;;41.30;22.80;;;;;;;18.20;22.11;100540.77;125008;1102;102391;-77
2022/03/24 11:37:23;;;;;;;40.10;22.37;;;;;;;18.24;22.03;100527.52;124088;1102;104422;-77